sensor_id;sensor_type;location;lat;lon;timestamp;pressure;altitude;pressure_sealevel;temperature;humidity
41945;BME280;63122;52.424;13.458;2023-05-16T00:00:27;100236.34;;;14.39;100.00
41945;BME280;63122;52.424;13.458;2023-05-16T00:02:46;100243.63;;;14.37;100.00
41945;BME280;63122;52.424;13.458;2023-05-16T00:04:47;100249.13;;;14.36;100.00
41945;BME280;63122;52.424;13.458;2023-05-16T00:06:44;100244.38;;;14.31;100.00
41945;BME280;63122;52.424;13.458;2023-05-16T00:08:53;100240.66;;;14.25;100.00
41945;BME280;63122;52.424;13.458;2023-05-16T00:10:52;100247.16;;;14.23;100.00
41945;BME280;63122;52.424;13.458;2023-05-16T00:12:52;100245.69;;;14.20;100.00
41945;BME280;63122;52.424;13.458;2023-05-16T00:14:49;100237.94;;;14.19;100.00
41945;BME280;63122;52.424;13.458;2023-05-16T00:16:49;100249.16;;;14.21;100.00
41945;BME280;63122;52.424;13.458;2023-05-16T00:18:51;100242.59;;;14.17;100.00
41945;BME280;63122;52.424;13.458;2023-05-16T00:20:56;100240.13;;;14.15;100.00
41945;BME280;63122;52.424;13.458;2023-05-16T00:22:57;100234.44;;;14.18;100.00
41945;BME280;63122;52.424;13.458;2023-05-16T00:24:56;100239.19;;;14.23;100.00
41945;BME280;63122;52.424;13.458;2023-05-16T00:26:55;100244.34;;;14.24;100.00
41945;BME280;63122;52.424;13.458;2023-05-16T00:28:52;100250.34;;;14.18;100.00
41945;BME280;63122;52.424;13.458;2023-05-16T00:30:50;100247.19;;;14.08;100.00
41945;BME280;63122;52.424;13.458;2023-05-16T00:32:51;100247.72;;;14.03;100.00
41945;BME280;63122;52.424;13.458;2023-05-16T00:34:48;100245.66;;;13.99;100.00
41945;BME280;63122;52.424;13.458;2023-05-16T03:07:38;100423.91;;;11.86;100.00
41945;BME280;63122;52.424;13.458;2023-05-16T03:09:52;100434.31;;;11.79;100.00
41945;BME280;63122;52.424;13.458;2023-05-16T03:18:40;100449.34;;;11.54;100.00
41945;BME280;63122;52.424;13.458;2023-05-16T03:21:33;100448.84;;;11.50;100.00
41945;BME280;63122;52.424;13.458;2023-05-16T03:24:15;100452.13;;;11.44;100.00
41945;BME280;63122;52.424;13.458;2023-05-16T03:26:19;100448.19;;;11.57;100.00
41945;BME280;63122;52.424;13.458;2023-05-16T03:28:48;100452.66;;;11.56;100.00
41945;BME280;63122;52.424;13.458;2023-05-16T03:31:33;100448.03;;;11.58;100.00
41945;BME280;63122;52.424;13.458;2023-05-16T03:44:53;100448.78;;;11.17;100.00
41945;BME280;63122;52.424;13.458;2023-05-16T03:46:51;100455.88;;;11.17;100.00
41945;BME280;63122;52.424;13.458;2023-05-16T03:58:42;100468.72;;;11.12;100.00
41945;BME280;63122;52.424;13.458;2023-05-16T04:01:09;100481.13;;;11.19;100.00
41945;BME280;63122;52.424;13.458;2023-05-16T04:03:17;100486.34;;;11.03;100.00
41945;BME280;63122;52.424;13.458;2023-05-16T04:05:30;100485.13;;;10.89;100.00
41945;BME280;63122;52.424;13.458;2023-05-16T04:07:54;100503.97;;;10.94;100.00
41945;BME280;63122;52.424;13.458;2023-05-16T04:10:10;100502.34;;;11.01;100.00
41945;BME280;63122;52.424;13.458;2023-05-16T04:12:06;100501.38;;;11.11;100.00
41945;BME280;63122;52.424;13.458;2023-05-16T04:14:02;100500.44;;;11.20;100.00
41945;BME280;63122;52.424;13.458;2023-05-16T04:15:57;100508.03;;;11.23;100.00
41945;BME280;63122;52.424;13.458;2023-05-16T04:17:55;100512.00;;;11.27;100.00
41945;BME280;63122;52.424;13.458;2023-05-16T04:19:50;100512.19;;;11.34;100.00
41945;BME280;63122;52.424;13.458;2023-05-16T04:21:45;100525.22;;;11.27;100.00
41945;BME280;63122;52.424;13.458;2023-05-16T04:23:41;100524.81;;;11.14;100.00
41945;BME280;63122;52.424;13.458;2023-05-16T04:25:37;100525.44;;;10.99;100.00
41945;BME280;63122;52.424;13.458;2023-05-16T04:27:32;100526.06;;;10.93;100.00
41945;BME280;63122;52.424;13.458;2023-05-16T04:29:28;100522.94;;;10.98;100.00
41945;BME280;63122;52.424;13.458;2023-05-16T04:31:24;100525.22;;;10.92;100.00
41945;BME280;63122;52.424;13.458;2023-05-16T04:33:22;100524.75;;;10.97;100.00
41945;BME280;63122;52.424;13.458;2023-05-16T04:35:17;100534.81;;;11.02;100.00
41945;BME280;63122;52.424;13.458;2023-05-16T04:37:13;100523.97;;;11.05;100.00
41945;BME280;63122;52.424;13.458;2023-05-16T04:39:08;100537.97;;;10.97;100.00
41945;BME280;63122;52.424;13.458;2023-05-16T04:41:03;100537.59;;;10.92;100.00
41945;BME280;63122;52.424;13.458;2023-05-16T04:42:58;100542.66;;;10.85;100.00
41945;BME280;63122;52.424;13.458;2023-05-16T04:44:54;100550.72;;;10.84;100.00
41945;BME280;63122;52.424;13.458;2023-05-16T04:46:49;100551.63;;;10.66;100.00
41945;BME280;63122;52.424;13.458;2023-05-16T04:48:47;100553.59;;;10.64;100.00
41945;BME280;63122;52.424;13.458;2023-05-16T04:50:43;100570.69;;;10.60;100.00
41945;BME280;63122;52.424;13.458;2023-05-16T04:52:38;100564.16;;;10.64;100.00
41945;BME280;63122;52.424;13.458;2023-05-16T04:54:33;100574.03;;;10.62;100.00
41945;BME280;63122;52.424;13.458;2023-05-16T04:56:28;100570.69;;;10.60;100.00
41945;BME280;63122;52.424;13.458;2023-05-16T04:58:24;100580.47;;;10.41;100.00
41945;BME280;63122;52.424;13.458;2023-05-16T05:00:19;100583.59;;;10.45;100.00
41945;BME280;63122;52.424;13.458;2023-05-16T05:02:15;100584.44;;;10.45;100.00
41945;BME280;63122;52.424;13.458;2023-05-16T05:04:13;100589.28;;;10.50;100.00
41945;BME280;63122;52.424;13.458;2023-05-16T05:06:08;100590.94;;;10.51;100.00
41945;BME280;63122;52.424;13.458;2023-05-16T05:08:04;100589.34;;;10.58;100.00
41945;BME280;63122;52.424;13.458;2023-05-16T05:09:59;100594.91;;;10.55;100.00
41945;BME280;63122;52.424;13.458;2023-05-16T05:11:55;100594.69;;;10.48;100.00
41945;BME280;63122;52.424;13.458;2023-05-16T05:13:50;100604.88;;;10.43;100.00
41945;BME280;63122;52.424;13.458;2023-05-16T05:15:45;100602.06;;;10.45;100.00
41945;BME280;63122;52.424;13.458;2023-05-16T05:17:41;100610.88;;;10.35;100.00
41945;BME280;63122;52.424;13.458;2023-05-16T05:19:39;100612.53;;;10.36;100.00
41945;BME280;63122;52.424;13.458;2023-05-16T05:21:35;100615.94;;;10.47;100.00
41945;BME280;63122;52.424;13.458;2023-05-16T05:23:31;100624.06;;;10.54;100.00
41945;BME280;63122;52.424;13.458;2023-05-16T05:25:26;100624.91;;;10.54;100.00
41945;BME280;63122;52.424;13.458;2023-05-16T05:35:11;100638.00;;;10.46;100.00
41945;BME280;63122;52.424;13.458;2023-05-16T05:47:20;100652.75;;;10.20;100.00
41945;BME280;63122;52.424;13.458;2023-05-16T05:49:16;100651.16;;;10.28;100.00
41945;BME280;63122;52.424;13.458;2023-05-16T05:51:14;100649.06;;;10.31;100.00
41945;BME280;63122;52.424;13.458;2023-05-16T05:53:10;100647.09;;;10.33;100.00
41945;BME280;63122;52.424;13.458;2023-05-16T05:55:06;100653.06;;;10.35;100.00
41945;BME280;63122;52.424;13.458;2023-05-16T05:57:01;100655.13;;;10.42;100.00
41945;BME280;63122;52.424;13.458;2023-05-16T05:58:56;100654.31;;;10.41;100.00
41945;BME280;63122;52.424;13.458;2023-05-16T06:00:52;100658.03;;;10.38;100.00
41945;BME280;63122;52.424;13.458;2023-05-16T06:02:47;100654.38;;;10.49;100.00
41945;BME280;63122;52.424;13.458;2023-05-16T06:04:43;100651.19;;;10.46;100.00
41945;BME280;63122;52.424;13.458;2023-05-16T06:06:41;100650.22;;;10.47;100.00
41945;BME280;63122;52.424;13.458;2023-05-16T06:08:37;100653.25;;;10.52;100.00
41945;BME280;63122;52.424;13.458;2023-05-16T06:10:32;100650.38;;;10.63;100.00
41945;BME280;63122;52.424;13.458;2023-05-16T06:12:27;100659.50;;;10.69;100.00
41945;BME280;63122;52.424;13.458;2023-05-16T06:14:23;100653.91;;;10.72;100.00
41945;BME280;63122;52.424;13.458;2023-05-16T06:16:18;100658.19;;;10.73;100.00
41945;BME280;63122;52.424;13.458;2023-05-16T06:18:13;100658.56;;;10.78;100.00
41945;BME280;63122;52.424;13.458;2023-05-16T06:20:10;100650.72;;;10.69;100.00
41945;BME280;63122;52.424;13.458;2023-05-16T06:22:08;100647.78;;;10.72;100.00
41945;BME280;63122;52.424;13.458;2023-05-16T06:24:03;100659.41;;;10.79;100.00
41945;BME280;63122;52.424;13.458;2023-05-16T06:25:58;100659.09;;;10.82;100.00
41945;BME280;63122;52.424;13.458;2023-05-16T06:27:54;100661.75;;;10.82;100.00
41945;BME280;63122;52.424;13.458;2023-05-16T06:29:49;100665.97;;;10.75;100.00
41945;BME280;63122;52.424;13.458;2023-05-16T06:31:44;100669.88;;;10.71;100.00
41945;BME280;63122;52.424;13.458;2023-05-16T06:33:40;100669.69;;;10.64;100.00
41945;BME280;63122;52.424;13.458;2023-05-16T06:35:36;100674.03;;;10.73;100.00
41945;BME280;63122;52.424;13.458;2023-05-16T06:37:34;100675.00;;;10.72;100.00
41945;BME280;63122;52.424;13.458;2023-05-16T06:39:31;100679.63;;;10.70;100.00
41945;BME280;63122;52.424;13.458;2023-05-16T06:41:26;100677.28;;;10.67;100.00
41945;BME280;63122;52.424;13.458;2023-05-16T06:43:21;100685.81;;;10.61;100.00
41945;BME280;63122;52.424;13.458;2023-05-16T06:45:16;100692.19;;;10.58;100.00
41945;BME280;63122;52.424;13.458;2023-05-16T06:47:12;100691.16;;;10.51;100.00
41945;BME280;63122;52.424;13.458;2023-05-16T06:49:07;100692.75;;;10.62;100.00
41945;BME280;63122;52.424;13.458;2023-05-16T06:51:03;100697.41;;;10.68;100.00
41945;BME280;63122;52.424;13.458;2023-05-16T06:53:00;100699.56;;;10.73;100.00
41945;BME280;63122;52.424;13.458;2023-05-16T06:54:58;100699.28;;;10.76;100.00
41945;BME280;63122;52.424;13.458;2023-05-16T06:56:53;100707.66;;;10.71;100.00
41945;BME280;63122;52.424;13.458;2023-05-16T06:58:48;100712.56;;;10.66;100.00
41945;BME280;63122;52.424;13.458;2023-05-16T07:00:43;100713.16;;;10.78;100.00
41945;BME280;63122;52.424;13.458;2023-05-16T07:02:39;100721.13;;;10.86;100.00
41945;BME280;63122;52.424;13.458;2023-05-16T07:04:34;100722.13;;;10.85;100.00
41945;BME280;63122;52.424;13.458;2023-05-16T07:06:30;100726.72;;;10.83;100.00
41945;BME280;63122;52.424;13.458;2023-05-16T07:08:28;100717.28;;;10.80;100.00
41945;BME280;63122;52.424;13.458;2023-05-16T07:10:24;100722.06;;;10.77;100.00
41945;BME280;63122;52.424;13.458;2023-05-16T07:12:19;100718.50;;;10.68;100.00
41945;BME280;63122;52.424;13.458;2023-05-16T07:14:15;100722.03;;;10.59;100.00
41945;BME280;63122;52.424;13.458;2023-05-16T07:16:10;100728.16;;;10.59;100.00
41945;BME280;63122;52.424;13.458;2023-05-16T07:18:05;100730.13;;;10.57;100.00
41945;BME280;63122;52.424;13.458;2023-05-16T07:20:00;100725.22;;;10.62;100.00
41945;BME280;63122;52.424;13.458;2023-05-16T07:21:56;100732.88;;;10.74;100.00
41945;BME280;63122;52.424;13.458;2023-05-16T07:23:54;100731.78;;;10.76;100.00
41945;BME280;63122;52.424;13.458;2023-05-16T07:25:50;100725.75;;;10.84;100.00
41945;BME280;63122;52.424;13.458;2023-05-16T07:27:45;100731.69;;;10.86;100.00
41945;BME280;63122;52.424;13.458;2023-05-16T07:29:40;100728.38;;;10.84;100.00
41945;BME280;63122;52.424;13.458;2023-05-16T07:31:35;100725.50;;;10.77;100.00
41945;BME280;63122;52.424;13.458;2023-05-16T07:33:31;100727.09;;;10.88;100.00
41945;BME280;63122;52.424;13.458;2023-05-16T07:35:26;100723.41;;;10.81;100.00
41945;BME280;63122;52.424;13.458;2023-05-16T07:37:22;100730.03;;;10.85;100.00
41945;BME280;63122;52.424;13.458;2023-05-16T07:39:19;100735.63;;;10.82;100.00
41945;BME280;63122;52.424;13.458;2023-05-16T07:41:15;100733.22;;;10.89;100.00
41945;BME280;63122;52.424;13.458;2023-05-16T07:43:10;100732.22;;;11.08;100.00
41945;BME280;63122;52.424;13.458;2023-05-16T07:45:06;100738.16;;;11.10;100.00
41945;BME280;63122;52.424;13.458;2023-05-16T07:47:01;100741.47;;;11.12;100.00
41945;BME280;63122;52.424;13.458;2023-05-16T07:48:58;100744.69;;;11.24;100.00
41945;BME280;63122;52.424;13.458;2023-05-16T07:50:53;100746.59;;;11.14;100.00
41945;BME280;63122;52.424;13.458;2023-05-16T07:52:49;100742.81;;;11.16;100.00
41945;BME280;63122;52.424;13.458;2023-05-16T07:54:47;100750.47;;;11.28;100.00
41945;BME280;63122;52.424;13.458;2023-05-16T07:56:42;100746.75;;;11.12;100.00
41945;BME280;63122;52.424;13.458;2023-05-16T07:58:38;100741.69;;;11.01;100.00
41945;BME280;63122;52.424;13.458;2023-05-16T08:00:34;100747.69;;;11.03;100.00
41945;BME280;63122;52.424;13.458;2023-05-16T08:02:30;100749.78;;;10.99;100.00
41945;BME280;63122;52.424;13.458;2023-05-16T08:04:25;100758.75;;;11.06;100.00
41945;BME280;63122;52.424;13.458;2023-05-16T08:06:21;100768.63;;;11.04;100.00
41945;BME280;63122;52.424;13.458;2023-05-16T08:08:16;100766.53;;;11.08;100.00
41945;BME280;63122;52.424;13.458;2023-05-16T08:10:14;100769.28;;;11.24;100.00
41945;BME280;63122;52.424;13.458;2023-05-16T08:12:12;100777.28;;;11.33;100.00
41945;BME280;63122;52.424;13.458;2023-05-16T08:14:07;100777.13;;;11.34;100.00
41945;BME280;63122;52.424;13.458;2023-05-16T08:16:03;100778.28;;;11.32;100.00
41945;BME280;63122;52.424;13.458;2023-05-16T08:17:58;100777.56;;;11.30;100.00
41945;BME280;63122;52.424;13.458;2023-05-16T08:19:54;100784.53;;;11.31;100.00
41945;BME280;63122;52.424;13.458;2023-05-16T08:21:50;100784.91;;;11.36;100.00
41945;BME280;63122;52.424;13.458;2023-05-16T08:23:46;100785.25;;;11.41;100.00
41945;BME280;63122;52.424;13.458;2023-05-16T08:25:44;100788.66;;;11.33;100.00
41945;BME280;63122;52.424;13.458;2023-05-16T08:27:39;100787.41;;;11.19;100.00
41945;BME280;63122;52.424;13.458;2023-05-16T08:29:36;100786.50;;;11.11;100.00
41945;BME280;63122;52.424;13.458;2023-05-16T08:31:31;100793.13;;;11.15;100.00
41945;BME280;63122;52.424;13.458;2023-05-16T08:33:26;100791.41;;;11.05;100.00
41945;BME280;63122;52.424;13.458;2023-05-16T08:35:22;100793.38;;;11.03;100.00
41945;BME280;63122;52.424;13.458;2023-05-16T08:37:17;100789.53;;;10.98;100.00
41945;BME280;63122;52.424;13.458;2023-05-16T08:39:13;100789.97;;;11.11;100.00
41945;BME280;63122;52.424;13.458;2023-05-16T08:41:10;100796.47;;;11.17;100.00
41945;BME280;63122;52.424;13.458;2023-05-16T08:43:06;100794.88;;;11.24;100.00
41945;BME280;63122;52.424;13.458;2023-05-16T08:45:02;100802.44;;;11.19;100.00
41945;BME280;63122;52.424;13.458;2023-05-16T08:47:05;100796.47;;;11.17;100.00
41945;BME280;63122;52.424;13.458;2023-05-16T08:49:04;100787.47;;;11.09;100.00
41945;BME280;63122;52.424;13.458;2023-05-16T08:51:00;100798.72;;;11.12;100.00
41945;BME280;63122;52.424;13.458;2023-05-16T08:52:56;100805.75;;;11.03;100.00
41945;BME280;63122;52.424;13.458;2023-05-16T08:54:53;100799.41;;;10.95;100.00
41945;BME280;63122;52.424;13.458;2023-05-16T08:57:05;100796.84;;;11.04;100.00
41945;BME280;63122;52.424;13.458;2023-05-16T08:59:01;100802.81;;;11.06;100.00
41945;BME280;63122;52.424;13.458;2023-05-16T09:00:56;100801.44;;;11.20;100.00
41945;BME280;63122;52.424;13.458;2023-05-16T09:02:55;100797.56;;;11.32;100.00
41945;BME280;63122;52.424;13.458;2023-05-16T09:04:50;100799.41;;;11.32;100.00
41945;BME280;63122;52.424;13.458;2023-05-16T09:06:47;100803.69;;;11.33;100.00
41945;BME280;63122;52.424;13.458;2023-05-16T09:08:42;100802.91;;;11.41;100.00
41945;BME280;63122;52.424;13.458;2023-05-16T09:10:38;100810.31;;;11.37;100.00
41945;BME280;63122;52.424;13.458;2023-05-16T09:12:35;100812.88;;;11.29;100.00
41945;BME280;63122;52.424;13.458;2023-05-16T09:14:31;100809.19;;;11.21;100.00
41945;BME280;63122;52.424;13.458;2023-05-16T09:16:27;100813.88;;;11.28;100.00
41945;BME280;63122;52.424;13.458;2023-05-16T09:18:22;100810.94;;;11.31;100.00
41945;BME280;63122;52.424;13.458;2023-05-16T09:20:18;100808.75;;;11.26;100.00
41945;BME280;63122;52.424;13.458;2023-05-16T09:22:17;100817.19;;;11.30;100.00
41945;BME280;63122;52.424;13.458;2023-05-16T09:24:12;100820.44;;;11.23;100.00
41945;BME280;63122;52.424;13.458;2023-05-16T09:26:08;100821.97;;;11.26;100.00
41945;BME280;63122;52.424;13.458;2023-05-16T09:28:09;100821.97;;;11.26;100.00
41945;BME280;63122;52.424;13.458;2023-05-16T09:30:08;100820.31;;;11.25;100.00
41945;BME280;63122;52.424;13.458;2023-05-16T09:32:07;100825.28;;;11.28;100.00
41945;BME280;63122;52.424;13.458;2023-05-16T09:34:03;100817.03;;;11.31;100.00
41945;BME280;63122;52.424;13.458;2023-05-16T09:36:02;100817.66;;;11.25;100.00
41945;BME280;63122;52.424;13.458;2023-05-16T09:37:58;100824.44;;;11.28;100.00
41945;BME280;63122;52.424;13.458;2023-05-16T09:39:53;100817.41;;;11.36;100.00
41945;BME280;63122;52.424;13.458;2023-05-16T09:41:51;100821.88;;;11.36;100.00
41945;BME280;63122;52.424;13.458;2023-05-16T09:43:48;100822.78;;;11.45;100.00
41945;BME280;63122;52.424;13.458;2023-05-16T09:45:46;100836.34;;;11.50;100.00
41945;BME280;63122;52.424;13.458;2023-05-16T09:47:43;100832.84;;;11.49;100.00
41945;BME280;63122;52.424;13.458;2023-05-16T09:49:40;100836.13;;;11.43;100.00
41945;BME280;63122;52.424;13.458;2023-05-16T09:51:35;100844.44;;;11.30;100.00
41945;BME280;63122;52.424;13.458;2023-05-16T09:53:31;100837.81;;;11.26;100.00
41945;BME280;63122;52.424;13.458;2023-05-16T09:55:27;100829.50;;;11.39;100.00
41945;BME280;63122;52.424;13.458;2023-05-16T09:57:23;100832.66;;;11.24;100.00
41945;BME280;63122;52.424;13.458;2023-05-16T09:59:21;100834.31;;;11.26;100.00
41945;BME280;63122;52.424;13.458;2023-05-16T10:01:17;100831.38;;;11.29;100.00
41945;BME280;63122;52.424;13.458;2023-05-16T10:03:14;100824.16;;;11.31;100.00
41945;BME280;63122;52.424;13.458;2023-05-16T10:05:10;100840.50;;;11.34;100.00
41945;BME280;63122;52.424;13.458;2023-05-16T10:07:06;100835.66;;;11.30;100.00
41945;BME280;63122;52.424;13.458;2023-05-16T10:09:03;100837.88;;;11.34;100.00
41945;BME280;63122;52.424;13.458;2023-05-16T10:10:59;100837.72;;;11.36;100.00
41945;BME280;63122;52.424;13.458;2023-05-16T10:12:57;100840.19;;;11.37;100.00
41945;BME280;63122;52.424;13.458;2023-05-16T10:14:56;100839.00;;;11.50;100.00
41945;BME280;63122;52.424;13.458;2023-05-16T10:16:52;100836.41;;;11.58;100.00
41945;BME280;63122;52.424;13.458;2023-05-16T10:18:50;100839.75;;;11.69;100.00
41945;BME280;63122;52.424;13.458;2023-05-16T10:20:48;100838.09;;;11.67;100.00
41945;BME280;63122;52.424;13.458;2023-05-16T10:22:46;100836.66;;;11.73;100.00
41945;BME280;63122;52.424;13.458;2023-05-16T10:24:47;100839.00;;;11.76;100.00
41945;BME280;63122;52.424;13.458;2023-05-16T10:26:46;100841.91;;;11.65;100.00
41945;BME280;63122;52.424;13.458;2023-05-16T10:28:43;100838.72;;;11.61;100.00
41945;BME280;63122;52.424;13.458;2023-05-16T10:30:43;100841.81;;;11.57;100.00
41945;BME280;63122;52.424;13.458;2023-05-16T10:32:39;100851.03;;;11.52;100.00
41945;BME280;63122;52.424;13.458;2023-05-16T10:34:35;100850.06;;;11.53;100.00
41945;BME280;63122;52.424;13.458;2023-05-16T10:36:31;100855.44;;;11.62;100.00
41945;BME280;63122;52.424;13.458;2023-05-16T10:38:27;100854.22;;;11.56;100.00
41945;BME280;63122;52.424;13.458;2023-05-16T10:40:23;100867.19;;;11.49;100.00
41945;BME280;63122;52.424;13.458;2023-05-16T10:42:19;100861.78;;;11.51;100.00
41945;BME280;63122;52.424;13.458;2023-05-16T10:44:16;100857.75;;;11.65;100.00
41945;BME280;63122;52.424;13.458;2023-05-16T10:46:14;100858.16;;;11.78;100.00
41945;BME280;63122;52.424;13.458;2023-05-16T10:48:11;100853.31;;;11.92;100.00
41945;BME280;63122;52.424;13.458;2023-05-16T10:50:07;100849.06;;;11.99;100.00
41945;BME280;63122;52.424;13.458;2023-05-16T10:52:08;100847.47;;;12.06;100.00
41945;BME280;63122;52.424;13.458;2023-05-16T10:57:16;100839.34;;;12.34;100.00
41945;BME280;63122;52.424;13.458;2023-05-16T10:59:24;100857.16;;;12.24;100.00
41945;BME280;63122;52.424;13.458;2023-05-16T11:01:40;100864.41;;;12.22;100.00
41945;BME280;63122;52.424;13.458;2023-05-16T11:03:36;100862.09;;;12.19;100.00
41945;BME280;63122;52.424;13.458;2023-05-16T11:05:35;100880.41;;;12.12;100.00
41945;BME280;63122;52.424;13.458;2023-05-16T11:07:35;100882.72;;;12.15;100.00
41945;BME280;63122;52.424;13.458;2023-05-16T11:09:35;100879.19;;;12.06;100.00
41945;BME280;63122;52.424;13.458;2023-05-16T11:11:41;100879.63;;;11.75;100.00
41945;BME280;63122;52.424;13.458;2023-05-16T11:13:53;100886.91;;;11.55;100.00
41945;BME280;63122;52.424;13.458;2023-05-16T11:15:50;100888.63;;;11.64;100.00
41945;BME280;63122;52.424;13.458;2023-05-16T11:17:49;100883.94;;;11.76;100.00
41945;BME280;63122;52.424;13.458;2023-05-16T11:19:49;100894.19;;;11.79;100.00
41945;BME280;63122;52.424;13.458;2023-05-16T11:22:09;100876.53;;;11.80;100.00
41945;BME280;63122;52.424;13.458;2023-05-16T11:24:29;100886.53;;;11.94;100.00
41945;BME280;63122;52.424;13.458;2023-05-16T11:26:32;100880.34;;;12.04;100.00
41945;BME280;63122;52.424;13.458;2023-05-16T11:28:33;100880.75;;;12.17;100.00
41945;BME280;63122;52.424;13.458;2023-05-16T11:30:30;100883.91;;;12.21;100.00
41945;BME280;63122;52.424;13.458;2023-05-16T11:32:32;100892.28;;;12.08;100.00
41945;BME280;63122;52.424;13.458;2023-05-16T11:34:34;100901.09;;;12.17;100.00
41945;BME280;63122;52.424;13.458;2023-05-16T11:36:34;100891.97;;;12.11;100.00
41945;BME280;63122;52.424;13.458;2023-05-16T11:38:33;100892.59;;;12.05;100.00
41945;BME280;63122;52.424;13.458;2023-05-16T11:40:31;100898.88;;;12.04;100.00
41945;BME280;63122;52.424;13.458;2023-05-16T11:42:34;100885.22;;;11.99;100.00
41945;BME280;63122;52.424;13.458;2023-05-16T11:44:30;100892.72;;;12.03;100.00
41945;BME280;63122;52.424;13.458;2023-05-16T11:46:26;100901.56;;;12.12;100.00
41945;BME280;63122;52.424;13.458;2023-05-16T11:48:24;100903.47;;;12.02;100.00
41945;BME280;63122;52.424;13.458;2023-05-16T11:50:36;100898.44;;;12.17;100.00
41945;BME280;63122;52.424;13.458;2023-05-16T11:52:32;100903.22;;;12.13;100.00
41945;BME280;63122;52.424;13.458;2023-05-16T11:54:34;100898.38;;;12.08;100.00
41945;BME280;63122;52.424;13.458;2023-05-16T11:56:38;100902.84;;;12.08;100.00
41945;BME280;63122;52.424;13.458;2023-05-16T11:58:36;100906.94;;;12.02;100.00
41945;BME280;63122;52.424;13.458;2023-05-16T12:00:35;100901.88;;;12.09;100.00
41945;BME280;63122;52.424;13.458;2023-05-16T12:02:30;100913.00;;;12.21;100.00
41945;BME280;63122;52.424;13.458;2023-05-16T12:04:26;100901.56;;;12.12;100.00
41945;BME280;63122;52.424;13.458;2023-05-16T12:06:26;100910.28;;;12.13;100.00
41945;BME280;63122;52.424;13.458;2023-05-16T12:08:26;100909.38;;;12.22;100.00
41945;BME280;63122;52.424;13.458;2023-05-16T12:10:24;100901.50;;;12.38;100.00
41945;BME280;63122;52.424;13.458;2023-05-16T12:12:29;100918.00;;;12.59;100.00
41945;BME280;63122;52.424;13.458;2023-05-16T12:14:26;100908.84;;;12.88;100.00
41945;BME280;63122;52.424;13.458;2023-05-16T12:16:23;100904.09;;;13.00;100.00
41945;BME280;63122;52.424;13.458;2023-05-16T12:18:19;100910.53;;;13.05;100.00
41945;BME280;63122;52.424;13.458;2023-05-16T12:20:24;100913.19;;;13.05;100.00
41945;BME280;63122;52.424;13.458;2023-05-16T12:22:26;100911.31;;;12.89;100.00
41945;BME280;63122;52.424;13.458;2023-05-16T12:24:29;100918.28;;;12.90;100.00
41945;BME280;63122;52.424;13.458;2023-05-16T12:26:30;100923.41;;;12.92;100.00
41945;BME280;63122;52.424;13.458;2023-05-16T12:28:31;100913.63;;;12.84;100.00
41945;BME280;63122;52.424;13.458;2023-05-16T12:30:31;100918.41;;;12.80;100.00
41945;BME280;63122;52.424;13.458;2023-05-16T12:32:53;100916.78;;;12.88;100.00
41945;BME280;63122;52.424;13.458;2023-05-16T12:35:12;100923.03;;;12.78;100.00
41945;BME280;63122;52.424;13.458;2023-05-16T12:37:26;100931.72;;;12.62;100.00
41945;BME280;63122;52.424;13.458;2023-05-16T12:39:53;100926.28;;;12.64;100.00
41945;BME280;63122;52.424;13.458;2023-05-16T12:42:10;100919.34;;;12.63;100.00
41945;BME280;63122;52.424;13.458;2023-05-16T12:44:09;100921.00;;;12.64;100.00
41945;BME280;63122;52.424;13.458;2023-05-16T12:46:09;100923.84;;;12.71;100.00
41945;BME280;63122;52.424;13.458;2023-05-16T12:48:12;100920.22;;;12.80;100.00
41945;BME280;63122;52.424;13.458;2023-05-16T12:50:15;100918.38;;;12.72;100.00
41945;BME280;63122;52.424;13.458;2023-05-16T12:52:17;100904.53;;;12.87;100.00
41945;BME280;63122;52.424;13.458;2023-05-16T12:54:19;100907.56;;;13.08;100.00
41945;BME280;63122;52.424;13.458;2023-05-16T12:56:20;100914.38;;;13.19;99.14
41945;BME280;63122;52.424;13.458;2023-05-16T12:58:19;100903.63;;;13.21;95.74
41945;BME280;63122;52.424;13.458;2023-05-16T13:00:17;100898.00;;;13.24;96.32
41945;BME280;63122;52.424;13.458;2023-05-16T13:02:17;100899.84;;;13.40;97.77
41945;BME280;63122;52.424;13.458;2023-05-16T13:04:13;100902.84;;;13.53;93.99
41945;BME280;63122;52.424;13.458;2023-05-16T13:06:12;100899.84;;;13.32;94.47
41945;BME280;63122;52.424;13.458;2023-05-16T13:08:08;100903.47;;;13.39;94.75
41945;BME280;63122;52.424;13.458;2023-05-16T13:10:10;100900.38;;;13.44;94.09
41945;BME280;63122;52.424;13.458;2023-05-16T13:12:05;100903.84;;;13.44;94.78
41945;BME280;63122;52.424;13.458;2023-05-16T13:14:02;100898.19;;;13.80;95.97
41945;BME280;63122;52.424;13.458;2023-05-16T13:15:58;100900.78;;;14.22;93.85
41945;BME280;63122;52.424;13.458;2023-05-16T13:17:55;100885.69;;;14.62;88.02
41945;BME280;63122;52.424;13.458;2023-05-16T13:20:03;100883.53;;;14.74;80.65
41945;BME280;63122;52.424;13.458;2023-05-16T13:22:03;100882.59;;;14.59;78.14
41945;BME280;63122;52.424;13.458;2023-05-16T13:24:02;100880.00;;;14.42;78.24
41945;BME280;63122;52.424;13.458;2023-05-16T13:26:07;100877.53;;;14.40;79.02